»·PEaware :: DCM2499 KBOI-KMSO

DCM2499 :: KBOI-KMSO

FLIGHT INFORMATION

Flight Status: Arrived
Operator: DotCom
More flights by this operator :: More flights under this callsign
Pilot: Alec D. (17934)
Aircraft: GATES LEARJET LEARJET 35/36
(LJ35)
More flights by this aircraft type
Origin: KBOI Boise Air Terminal/Gowen
United States
Destination: KMSO Missoula Intl
United States
More flights between these airports :: More routes between these airports
Route: +PLUTO V113 LKT V231 MSO
File this flight plan on PilotEdge
Remarks:
Altitude:
(Current/Filed)
31,000ft
Speed:
(Current/Filed)
430kts
Departed: 24-Dec-18 11:30 AM
Arrived: 24-Dec-18 12:27 PM
Distance/Time
Traveled:
221nm/0:57
Distance/Time
To Go:
Arrived

Flight Plot

Page will automatically refresh every two minutes.

Flight plan parsing failed; only flown route is shown


Map Options




Map Legend


Flown Route
Filed Route
Departure Airport
Arrival Airport
Navaid (VOR, NDB)
Fix

Horizontal Profiles

Position Reports

Time Latitude Longitude Heading Altitude Ground
Speed
24-Dec-18 11:11 43.570094 -116.226899 184 2873ft 0kts
24-Dec-18 11:12 43.570094 -116.226899 184 2873ft 0kts
24-Dec-18 11:13 43.570094 -116.226899 184 2873ft 0kts
24-Dec-18 11:14 43.570094 -116.226899 184 2873ft 0kts
24-Dec-18 11:15 43.570094 -116.226899 184 2873ft 0kts
24-Dec-18 11:16 43.570094 -116.226899 184 2873ft 0kts
24-Dec-18 11:17 43.570094 -116.226899 184 2873ft 0kts
24-Dec-18 11:19 43.570094 -116.226899 184 2873ft 0kts
24-Dec-18 11:20 43.570094 -116.226899 184 2873ft 0kts
24-Dec-18 11:21 43.570094 -116.226899 184 2873ft 0kts
24-Dec-18 11:22 43.570094 -116.226899 184 2873ft 0kts
24-Dec-18 11:23 43.570094 -116.226899 184 2873ft 0kts
24-Dec-18 11:24 43.570094 -116.226899 184 2873ft 0kts
24-Dec-18 11:25 43.570094 -116.226899 184 2873ft 0kts
24-Dec-18 11:26 43.569140 -116.227888 256 2873ft 13kts
24-Dec-18 11:27 43.569636 -116.231551 294 2873ft 12kts
24-Dec-18 11:28 43.570815 -116.235067 293 2873ft 0kts
24-Dec-18 11:29 43.569878 -116.235950 114 2874ft 15kts
24-Dec-18 11:30 43.553667 -116.190778 116 4744ft 194kts
24-Dec-18 11:31 43.529301 -116.114333 114 8164ft 236kts
24-Dec-18 11:32 43.501754 -116.025064 94 11520ft 269kts
24-Dec-18 11:33 43.539834 -115.933529 22 13755ft 313kts
24-Dec-18 11:34 43.622005 -115.891298 8 16929ft 314kts
24-Dec-18 11:35 43.709109 -115.863321 2 19791ft 326kts
24-Dec-18 11:36 43.799579 -115.834967 10 22835ft 349kts
24-Dec-18 11:37 43.877590 -115.739729 35 25324ft 390kts
24-Dec-18 11:37 43.942217 -115.648795 35 27175ft 404kts
24-Dec-18 11:39 44.035796 -115.516553 34 29920ft 417kts
24-Dec-18 11:39 44.104097 -115.419764 35 31072ft 435kts
24-Dec-18 11:40 44.192492 -115.293906 36 31058ft 469kts
24-Dec-18 11:41 44.284962 -115.161414 36 31060ft 480kts
24-Dec-18 11:43 44.393677 -115.004916 37 31061ft 479kts
24-Dec-18 11:43 44.470634 -114.893640 37 31060ft 476kts
24-Dec-18 11:44 44.562183 -114.760704 37 31058ft 473kts
24-Dec-18 11:45 44.653510 -114.627453 37 31061ft 471kts
24-Dec-18 11:46 44.743989 -114.494800 37 31065ft 470kts
24-Dec-18 11:47 44.834135 -114.361990 37 31066ft 469kts
24-Dec-18 11:48 44.924110 -114.228786 38 31080ft 468kts
24-Dec-18 11:49 45.017645 -114.104626 18 31079ft 444kts
24-Dec-18 11:50 45.131999 -114.084467 350 30497ft 405kts
24-Dec-18 11:51 45.243137 -114.084241 351 28502ft 394kts
24-Dec-18 11:52 45.351878 -114.084147 351 26507ft 388kts
24-Dec-18 11:53 45.459714 -114.084138 352 24506ft 385kts
24-Dec-18 11:54 45.564570 -114.084079 353 22789ft 369kts
24-Dec-18 11:55 45.666104 -114.084067 354 20781ft 359kts
24-Dec-18 11:56 45.763922 -114.084047 356 18781ft 346kts
24-Dec-18 11:57 45.859143 -114.084019 356 16784ft 337kts
24-Dec-18 11:58 45.952117 -114.083973 356 14787ft 328kts
24-Dec-18 11:59 46.042048 -114.083898 356 13069ft 311kts
24-Dec-18 12:00 46.121934 -114.083921 355 12997ft 271kts
24-Dec-18 12:01 46.196049 -114.083835 355 13026ft 263kts
24-Dec-18 12:02 46.270306 -114.083844 355 13028ft 270kts
24-Dec-18 12:03 46.346166 -114.083800 355 13025ft 272kts
24-Dec-18 12:04 46.422015 -114.083798 355 13024ft 273kts
24-Dec-18 12:05 46.498089 -114.083802 355 13021ft 274kts
24-Dec-18 12:06 46.574557 -114.083759 355 13018ft 274kts
24-Dec-18 12:07 46.649292 -114.091192 332 13019ft 262kts
24-Dec-18 12:08 46.710828 -114.146160 323 13017ft 261kts
24-Dec-18 12:09 46.771959 -114.205846 323 12998ft 266kts
24-Dec-18 12:10 46.833710 -114.266632 323 13000ft 269kts
24-Dec-18 12:11 46.895966 -114.328082 323 13002ft 270kts
24-Dec-18 12:12 46.958117 -114.389477 323 13000ft 267kts
24-Dec-18 12:13 47.013365 -114.459652 304 12369ft 266kts
24-Dec-18 12:14 47.055149 -114.548360 303 10478ft 264kts
24-Dec-18 12:15 47.095270 -114.633642 303 9980ft 241kts
24-Dec-18 12:16 47.148234 -114.674155 20 9998ft 244kts
24-Dec-18 12:17 47.189767 -114.602622 90 9997ft 249kts
24-Dec-18 12:18 47.159947 -114.510982 130 9993ft 258kts
24-Dec-18 12:19 47.114447 -114.430536 131 9692ft 248kts
24-Dec-18 12:20 47.069961 -114.355283 131 7668ft 226kts
24-Dec-18 12:21 47.032358 -114.290884 131 6409ft 196kts
24-Dec-18 12:22 46.998674 -114.233137 130 5412ft 175kts
24-Dec-18 12:23 46.968954 -114.182408 130 4524ft 155kts
24-Dec-18 12:24 46.941593 -114.135320 130 3733ft 149kts
24-Dec-18 12:25 46.918709 -114.096068 130 3208ft 72kts
24-Dec-18 12:26 46.916062 -114.090638 89 3208ft 8kts
24-Dec-18 12:27 46.916955 -114.089779 310 3208ft 9kts
24-Dec-18 12:28 46.919106 -114.088113 69 3208ft 10kts
24-Dec-18 12:29 46.919580 -114.085793 349 3208ft 13kts
24-Dec-18 12:30 46.920936 -114.085737 302 3207ft 0kts

Navigation Log

Ident Type
Flight plan parsing failed, navigation log unavailable